createdAt,value
2023-05-05T00:01:20.339Z,7.17
2023-05-05T00:06:23.081Z,8.40
2023-05-05T00:11:27.338Z,7.90
2023-05-05T00:16:30.163Z,8.47
2023-05-05T00:21:32.998Z,8.20
2023-05-05T00:26:37.166Z,7.50
2023-05-05T00:31:40.072Z,7.07
2023-05-05T00:36:42.865Z,6.97
2023-05-05T00:41:47.130Z,6.83
2023-05-05T00:46:50.049Z,7.35
2023-05-05T00:51:52.955Z,7.43
2023-05-05T00:56:57.252Z,6.53
2023-05-05T01:02:00.237Z,7.10
2023-05-05T01:07:10.784Z,7.68
2023-05-05T01:12:23.537Z,7.30
2023-05-05T01:17:32.499Z,8.63
2023-05-05T01:22:38.890Z,10.00
2023-05-05T01:27:55.668Z,10.63
2023-05-05T01:33:05.173Z,10.10
2023-05-05T01:38:11.888Z,8.75
2023-05-05T01:43:16.738Z,8.87
2023-05-05T01:48:21.795Z,11.30
2023-05-05T01:53:25.559Z,9.50
2023-05-05T01:58:29.641Z,8.40
2023-05-05T02:03:34.898Z,8.90
2023-05-05T02:08:38.122Z,8.70
2023-05-05T02:13:43.633Z,9.65
2023-05-05T02:18:53.255Z,9.00
2023-05-05T02:23:56.731Z,9.88
2023-05-05T02:29:03.727Z,9.60
2023-05-05T02:34:08.636Z,10.30
2023-05-05T02:39:14.866Z,10.20
2023-05-05T02:44:19.733Z,10.27
2023-05-05T02:49:23.971Z,9.70
2023-05-05T02:54:32.639Z,9.82
2023-05-05T02:59:42.461Z,9.07
2023-05-05T03:04:50.835Z,10.35
2023-05-05T03:09:59.290Z,9.63
2023-05-05T03:15:02.964Z,10.27
2023-05-05T03:20:09.196Z,9.10
2023-05-05T03:25:16.380Z,8.67
2023-05-05T03:30:20.234Z,7.30
2023-05-05T03:35:28.063Z,6.13
2023-05-05T03:40:42.880Z,5.23
2023-05-05T03:45:50.733Z,4.77
2023-05-05T03:50:56.447Z,4.93
2023-05-05T03:56:24.321Z,5.32
2023-05-05T04:01:29.959Z,5.03
2023-05-05T04:06:34.844Z,6.38
2023-05-05T04:11:37.727Z,7.07
2023-05-05T04:16:41.201Z,6.07
2023-05-05T04:21:45.852Z,8.65
2023-05-05T04:26:49.615Z,8.83
2023-05-05T04:31:53.895Z,9.13
2023-05-05T04:36:58.426Z,9.40
2023-05-05T04:42:02.237Z,10.87
2023-05-05T04:47:05.829Z,11.27
2023-05-05T04:52:10.938Z,11.23
2023-05-05T04:57:13.884Z,13.00
2023-05-05T05:02:18.444Z,12.63
2023-05-05T05:07:22.690Z,13.82
2023-05-05T05:12:26.618Z,14.25
2023-05-05T05:17:30.466Z,13.15
2023-05-05T05:22:38.209Z,13.70
2023-05-05T05:27:44.770Z,13.98
2023-05-05T05:32:49.985Z,12.95
2023-05-05T05:37:55.011Z,13.47
2023-05-05T05:42:57.954Z,14.15
2023-05-05T05:48:02.224Z,14.07
2023-05-05T05:53:06.724Z,15.30
2023-05-05T05:58:09.624Z,13.60
2023-05-05T06:03:12.727Z,12.82
2023-05-05T06:08:17.318Z,12.05
2023-05-05T06:13:24.856Z,11.68
2023-05-05T06:18:29.073Z,12.38
2023-05-05T06:23:33.627Z,11.40
2023-05-05T06:28:41.360Z,10.82
2023-05-05T06:33:44.228Z,11.43
2023-05-05T06:38:48.381Z,10.05
2023-05-05T06:43:51.239Z,9.03
2023-05-05T06:48:54.063Z,8.35
2023-05-05T06:53:58.287Z,7.13
2023-05-05T06:59:01.119Z,6.40
2023-05-05T07:04:03.991Z,6.07
2023-05-05T07:09:08.171Z,5.65
2023-05-05T07:14:11.061Z,4.30
2023-05-05T07:19:13.880Z,2.40
2023-05-05T07:24:18.296Z,1.70
2023-05-05T07:29:21.239Z,1.53
2023-05-05T07:34:24.240Z,1.90
2023-05-05T07:39:28.395Z,2.25
2023-05-05T07:44:31.836Z,1.95
2023-05-05T07:49:34.716Z,2.70
2023-05-05T07:54:38.926Z,2.45
2023-05-05T07:59:43.353Z,2.45
2023-05-05T08:04:46.285Z,2.65
2023-05-05T08:09:50.486Z,3.63
2023-05-05T08:14:53.295Z,3.83
2023-05-05T08:19:56.183Z,2.63
2023-05-05T08:25:00.662Z,2.50
2023-05-05T08:30:04.332Z,1.48
2023-05-05T08:35:08.317Z,1.80
2023-05-05T08:40:15.170Z,1.10
2023-05-05T08:45:17.958Z,1.33
2023-05-05T08:50:24.709Z,1.15
2023-05-05T08:55:35.442Z,1.60
2023-05-05T09:00:38.650Z,1.20
2023-05-05T09:05:43.460Z,1.57
2023-05-05T09:10:48.971Z,1.63
2023-05-05T09:15:51.764Z,2.00
2023-05-05T09:20:54.658Z,2.00
2023-05-05T09:26:06.166Z,1.33
2023-05-05T09:31:16.161Z,1.70
2023-05-05T09:36:19.250Z,1.85
2023-05-05T09:41:37.507Z,2.08
2023-05-05T09:46:40.505Z,2.25
2023-05-05T09:51:43.404Z,1.52
2023-05-05T09:56:47.601Z,1.40
2023-05-05T10:01:50.811Z,2.20
2023-05-05T10:06:53.696Z,1.30
2023-05-05T10:11:59.328Z,2.10
2023-05-05T10:17:02.852Z,2.93
2023-05-05T10:22:08.253Z,1.95
2023-05-05T10:27:16.777Z,1.88
2023-05-05T10:32:51.485Z,1.90
2023-05-05T10:37:47.110Z,2.17
2023-05-05T10:42:51.744Z,1.73
2023-05-05T10:47:55.122Z,1.80
2023-05-05T10:53:08.234Z,1.73
2023-05-05T10:58:33.083Z,1.05
2023-05-05T11:03:37.792Z,1.10
2023-05-05T11:08:42.519Z,1.48
2023-05-05T11:13:46.810Z,1.60
2023-05-05T11:18:49.611Z,1.55
2023-05-05T11:23:52.948Z,1.50
2023-05-05T11:28:59.739Z,1.63
2023-05-05T11:34:28.104Z,1.45
2023-05-05T11:39:41.082Z,1.90
2023-05-05T11:44:45.380Z,2.13
2023-05-05T11:49:48.323Z,1.30
2023-05-05T11:54:51.367Z,1.63
2023-05-05T11:59:56.904Z,2.50
2023-05-05T12:05:00.568Z,1.90
2023-05-05T12:10:03.802Z,2.10
2023-05-05T12:15:09.293Z,2.30
2023-05-05T12:20:13.555Z,2.70
2023-05-05T12:25:16.468Z,2.00
2023-05-05T12:30:22.335Z,2.20
2023-05-05T12:35:25.391Z,3.25
2023-05-05T12:40:47.497Z,3.08
2023-05-05T12:46:00.224Z,3.55
2023-05-05T12:51:19.836Z,3.43
2023-05-05T12:56:33.129Z,3.00
2023-05-05T13:01:49.279Z,3.60
2023-05-05T13:07:09.996Z,3.73
2023-05-05T13:12:12.812Z,3.72
2023-05-05T13:17:17.103Z,3.58
2023-05-05T13:22:20.202Z,3.22
2023-05-05T13:27:23.697Z,4.00
2023-05-05T13:32:27.972Z,3.57
2023-05-05T13:37:30.902Z,4.17
2023-05-05T13:42:33.768Z,3.97
2023-05-05T13:47:37.919Z,4.18
2023-05-05T13:52:40.788Z,4.23
2023-05-05T13:57:43.883Z,4.70
2023-05-05T14:02:48.197Z,3.25
2023-05-05T14:07:51.039Z,3.13
2023-05-05T14:12:53.946Z,1.40
2023-05-05T14:17:59.572Z,1.58
2023-05-05T14:23:02.491Z,3.03
2023-05-05T14:28:05.464Z,2.77
2023-05-05T14:33:10.203Z,2.10
2023-05-05T14:38:13.116Z,1.90
2023-05-05T14:43:15.977Z,1.70
2023-05-05T14:48:22.073Z,1.92
2023-05-05T14:53:24.956Z,2.08
2023-05-05T14:58:27.758Z,2.20
2023-05-05T15:03:32.319Z,2.70
2023-05-05T15:08:35.285Z,2.60
2023-05-05T15:13:40.028Z,2.90
2023-05-05T15:18:44.211Z,3.30
2023-05-05T15:23:47.314Z,3.63
2023-05-05T15:28:50.491Z,3.00
2023-05-05T15:33:54.823Z,3.20
2023-05-05T15:38:57.577Z,3.65
2023-05-05T15:44:00.758Z,4.60
2023-05-05T15:49:04.904Z,5.72
2023-05-05T15:54:07.808Z,2.60
2023-05-05T15:59:10.643Z,2.80
2023-05-05T16:04:14.843Z,2.10
2023-05-05T16:09:17.733Z,2.15
2023-05-05T16:14:20.618Z,2.37
2023-05-05T16:19:26.664Z,2.92
2023-05-05T16:24:29.409Z,3.28
2023-05-05T16:29:32.250Z,3.55
2023-05-05T16:34:36.398Z,3.90
2023-05-05T16:39:40.315Z,2.90
2023-05-05T16:44:43.300Z,3.33
2023-05-05T16:49:47.561Z,3.20
2023-05-05T16:54:55.523Z,4.18
2023-05-05T16:59:58.420Z,4.28
2023-05-05T17:05:02.637Z,3.67
2023-05-05T17:10:06.678Z,4.28
2023-05-05T17:15:10.828Z,4.10
2023-05-05T17:20:15.458Z,3.75
2023-05-05T17:25:20.104Z,4.47
2023-05-05T17:30:23.118Z,3.70
2023-05-05T17:35:27.382Z,3.97
2023-05-05T17:40:30.236Z,3.97
2023-05-05T17:45:32.999Z,4.55
2023-05-05T17:50:37.191Z,3.85
2023-05-05T17:55:40.031Z,4.85
2023-05-05T18:00:42.971Z,4.97
2023-05-05T18:05:47.317Z,5.05
2023-05-05T18:10:50.174Z,5.85
2023-05-05T18:15:53.047Z,5.63
2023-05-05T18:20:57.181Z,5.30
2023-05-05T18:26:00.057Z,4.60
2023-05-05T18:31:02.920Z,5.35
2023-05-05T18:36:07.620Z,13.13
2023-05-05T18:41:10.848Z,5.87
2023-05-05T18:46:13.621Z,6.37
2023-05-05T18:51:17.927Z,5.63
2023-05-05T18:56:21.564Z,5.37
2023-05-05T19:01:24.520Z,5.70
2023-05-05T19:06:28.699Z,6.20
2023-05-05T19:11:31.563Z,6.00
2023-05-05T19:16:34.480Z,6.05
2023-05-05T19:21:39.832Z,6.53
2023-05-05T19:26:44.120Z,6.80
2023-05-05T19:31:46.938Z,6.80
2023-05-05T19:36:51.201Z,6.82
2023-05-05T19:41:54.036Z,6.22
2023-05-05T19:46:56.915Z,6.55
2023-05-05T19:52:01.149Z,6.87
2023-05-05T19:57:04.274Z,7.38
2023-05-05T20:02:09.461Z,7.68
2023-05-05T20:07:13.634Z,7.55
2023-05-05T20:12:17.597Z,7.63
2023-05-05T20:17:21.375Z,8.85
2023-05-05T20:22:26.506Z,7.57
2023-05-05T20:27:29.460Z,7.68
2023-05-05T20:32:32.464Z,7.72
2023-05-05T20:37:36.624Z,7.18
2023-05-05T20:42:39.425Z,6.78
2023-05-05T20:47:42.316Z,7.63
2023-05-05T20:52:46.945Z,7.28
2023-05-05T20:57:49.756Z,6.90
2023-05-05T21:02:52.824Z,6.63
2023-05-05T21:07:58.511Z,5.85
2023-05-05T21:13:03.902Z,5.70
2023-05-05T21:18:07.514Z,5.63
2023-05-05T21:23:11.816Z,5.20
2023-05-05T21:28:14.693Z,5.57
2023-05-05T21:33:17.573Z,4.97
2023-05-05T21:38:21.687Z,6.07
2023-05-05T21:43:24.612Z,5.53
2023-05-05T21:48:27.470Z,6.07
2023-05-05T21:53:31.607Z,5.97
2023-05-05T21:58:34.436Z,4.72
2023-05-05T22:03:37.284Z,6.07
2023-05-05T22:08:42.051Z,6.35
2023-05-05T22:13:44.851Z,5.30
2023-05-05T22:18:47.591Z,6.60
2023-05-05T22:23:51.769Z,5.95
2023-05-05T22:28:54.576Z,6.00
2023-05-05T22:33:57.334Z,5.43
2023-05-05T22:39:01.630Z,5.97
2023-05-05T22:44:04.559Z,5.37
2023-05-05T22:49:07.764Z,6.17
2023-05-05T22:54:13.121Z,6.80
2023-05-05T22:59:15.961Z,6.47
2023-05-05T23:04:18.786Z,6.20
2023-05-05T23:09:23.002Z,7.88
2023-05-05T23:14:26.121Z,7.53
2023-05-05T23:19:32.066Z,8.93
2023-05-05T23:24:36.330Z,7.63
2023-05-05T23:29:39.075Z,8.23
2023-05-05T23:34:41.959Z,8.47
2023-05-05T23:39:46.135Z,9.23
2023-05-05T23:44:48.854Z,9.45
2023-05-05T23:49:51.620Z,9.80
2023-05-05T23:54:56.176Z,8.75
2023-05-05T23:59:59.078Z,10.48
